Time;durP1;ratioP1;P1;durP2;ratioP2;P2;SDS_P1;SDS_P2;PMS_P1;PMS_P2;Temp;Humidity;BMP_temperature;BMP_pressure;BME280_temperature;BME280_humidity;BME280_pressure;Samples;Min_cycle;Max_cycle;Signal;HPM_P1;HPM_P2
2022/10/16 00:01:43;;;;;;;10.10;1.85;;;;;;;13.82;85.95;100753.28;5009436;28;20025;-40
2022/10/16 00:04:08;;;;;;;11.07;2.60;;;;;;;13.83;85.92;100763.03;5009929;28;20443;-39
2022/10/16 00:06:33;;;;;;;5.28;1.63;;;;;;;13.80;86.05;100758.06;5009742;28;20018;-41
2022/10/16 00:08:59;;;;;;;8.57;2.30;;;;;;;13.76;86.33;100759.47;5009754;28;20045;-42
2022/10/16 00:11:30;;;;;;;4.75;2.58;;;;;;;13.75;86.13;100768.66;5010345;28;20046;-39
2022/10/16 00:13:58;;;;;;;8.18;2.13;;;;;;;13.75;86.60;100768.66;5009894;28;20030;-39
2022/10/16 00:16:23;;;;;;;;;;;;;;;13.73;86.47;100764.47;5010750;28;20030;-40
2022/10/16 00:18:49;;;;;;;8.57;2.08;;;;;;;13.71;86.67;100761.97;5009225;28;20434;-39
2022/10/16 00:21:17;;;;;;;11.48;2.00;;;;;;;13.70;86.71;100763.00;5010132;28;20475;-40
2022/10/16 00:23:42;;;;;;;7.32;1.80;;;;;;;13.72;86.77;100766.34;5009564;28;20045;-39
2022/10/16 00:26:11;;;;;;;5.93;1.50;;;;;;;13.70;86.75;100760.31;5010959;28;20037;-41
2022/10/16 00:28:37;;;;;;;8.38;2.20;;;;;;;13.67;87.36;100757.19;5013257;28;20489;-40
2022/10/16 00:31:08;;;;;;;11.07;2.08;;;;;;;13.63;87.80;100762.16;4994892;28;20109;-40
2022/10/16 00:33:34;;;;;;;6.65;1.80;;;;;;;13.62;88.12;100752.41;5013777;28;20133;-40
2022/10/16 00:36:02;;;;;;;4.10;1.90;;;;;;;13.62;87.71;100746.97;5013454;28;20122;-39
2022/10/16 00:38:27;;;;;;;7.70;1.63;;;;;;;13.60;88.11;100752.59;5013514;28;20116;-41
2022/10/16 00:40:53;;;;;;;10.85;2.00;;;;;;;13.59;88.08;100756.34;5013629;28;20109;-39
2022/10/16 00:43:41;;;;;;;4.75;1.42;;;;;;;13.61;88.41;100753.41;5013606;28;20032;-40
2022/10/16 00:46:21;;;;;;;4.75;1.42;;;;;;;13.61;88.42;100745.28;5013659;28;20033;-40
2022/10/16 00:48:52;;;;;;;5.65;1.33;;;;;;;13.61;88.60;100758.81;5013421;28;20030;-40
2022/10/16 00:51:24;;;;;;;12.70;1.85;;;;;;;13.63;88.85;100756.75;5013511;28;20034;-40
2022/10/16 00:53:50;;;;;;;3.42;1.35;;;;;;;13.59;89.11;100763.63;4992629;28;20087;-40
2022/10/16 00:56:16;;;;;;;9.35;1.88;;;;;;;13.55;90.20;100757.78;4980529;28;20480;-39
2022/10/16 00:58:41;;;;;;;4.75;1.38;;;;;;;13.57;90.69;100758.41;4995498;28;20047;-40
2022/10/16 01:01:06;;;;;;;5.28;1.70;;;;;;;13.53;91.06;100767.97;4995347;28;22039;-40
2022/10/16 01:03:34;;;;;;;8.25;2.30;;;;;;;13.48;91.77;100775.00;4995982;28;20490;-40
2022/10/16 01:06:15;;;;;;;;;;;;;;;13.46;92.12;100777.09;5013618;28;20044;-39
2022/10/16 01:08:53;;;;;;;5.75;1.63;;;;;;;13.39;92.90;100777.88;5012686;28;19980;-39
2022/10/16 01:11:35;;;;;;;5.32;1.75;;;;;;;13.38;93.22;100778.09;4995807;28;20086;-40
2022/10/16 01:14:07;;;;;;;6.65;1.73;;;;;;;13.36;93.75;100766.66;4995705;28;20058;-40
2022/10/16 01:17:05;;;;;;;6.95;1.92;;;;;;;13.32;94.26;100771.66;5012696;28;20108;-39
2022/10/16 01:20:03;;;;;;;6.07;1.85;;;;;;;13.27;95.00;100768.72;5012385;28;20057;-40
2022/10/16 01:22:56;;;;;;;5.63;2.13;;;;;;;13.24;95.46;100773.63;4968923;28;20571;-39
2022/10/16 01:25:53;;;;;;;7.55;2.00;;;;;;;13.18;96.24;100775.28;5012904;28;20029;-40
2022/10/16 01:28:22;;;;;;;9.02;1.90;;;;;;;13.13;96.97;100766.94;4991352;28;20037;-40
2022/10/16 01:30:51;;;;;;;8.45;1.95;;;;;;;13.09;97.54;100765.69;4993268;28;20038;-40
2022/10/16 01:33:20;;;;;;;9.48;1.92;;;;;;;13.07;98.03;100767.75;4995215;28;20022;-40
2022/10/16 01:35:48;;;;;;;5.20;2.33;;;;;;;13.05;98.05;100780.59;4994786;28;20105;-40
2022/10/16 01:38:29;;;;;;;7.65;2.20;;;;;;;13.04;98.54;100778.97;4977877;28;20034;-41
2022/10/16 01:41:00;;;;;;;9.30;2.00;;;;;;;13.07;98.53;100778.56;5012677;28;20108;-40
2022/10/16 01:43:30;;;;;;;10.23;2.35;;;;;;;13.02;98.78;100781.03;4994821;28;20393;-38
2022/10/16 01:45:56;;;;;;;6.97;2.17;;;;;;;13.01;99.09;100773.97;4992853;28;20064;-39
2022/10/16 01:48:23;;;;;;;6.50;1.90;;;;;;;13.02;98.89;100786.41;5011907;28;20105;-40
2022/10/16 01:50:54;;;;;;;5.70;2.00;;;;;;;13.03;99.06;100774.56;4994809;28;20021;-39
2022/10/16 01:53:20;;;;;;;5.57;2.17;;;;;;;13.00;98.87;100783.91;5010886;28;20283;-39
2022/10/16 01:55:47;;;;;;;3.03;1.80;;;;;;;13.04;99.00;100778.97;5011969;28;20100;-39
2022/10/16 01:58:13;;;;;;;10.40;1.92;;;;;;;13.00;99.17;100792.00;5010475;28;20481;-44
2022/10/16 02:00:42;;;;;;;5.30;2.10;;;;;;;12.97;99.39;100784.31;5012364;28;20044;-41
2022/10/16 02:03:09;;;;;;;3.33;1.80;;;;;;;12.93;99.97;100783.88;4994777;28;20044;-38
2022/10/16 02:05:40;;;;;;;9.35;2.10;;;;;;;12.95;100.00;100781.81;4994504;28;20125;-39
2022/10/16 02:08:06;;;;;;;4.88;2.42;;;;;;;12.92;100.00;100784.06;5065605;22;20104;-42
2022/10/16 02:10:32;;;;;;;15.82;3.40;;;;;;;12.91;100.00;100787.81;5036645;28;20477;-42
2022/10/16 02:13:06;;;;;;;9.07;2.80;;;;;;;12.89;100.00;100788.00;5048375;28;20075;-42
2022/10/16 02:15:32;;;;;;;6.45;2.55;;;;;;;12.91;100.00;100796.75;5033539;28;20199;-42
2022/10/16 02:17:57;;;;;;;4.45;2.50;;;;;;;12.93;100.00;100783.88;5050980;28;20589;-42
2022/10/16 02:20:27;;;;;;;7.35;2.58;;;;;;;12.94;100.00;100790.94;5051266;28;20411;-42
2022/10/16 02:22:53;;;;;;;7.38;2.50;;;;;;;12.99;100.00;100784.94;5051446;28;20364;-42
2022/10/16 02:25:29;;;;;;;9.60;2.78;;;;;;;13.00;100.00;100783.91;5051461;28;20147;-42
2022/10/16 02:27:59;;;;;;;6.05;2.58;;;;;;;13.00;100.00;100799.28;5051440;28;20028;-42
2022/10/16 02:30:52;;;;;;;11.18;3.08;;;;;;;12.99;100.00;100794.94;5050403;28;20086;-43
2022/10/16 02:33:18;;;;;;;8.35;2.85;;;;;;;13.02;100.00;100802.63;5046793;28;20044;-42
2022/10/16 02:35:46;;;;;;;6.63;3.03;;;;;;;12.98;100.00;100801.34;5051391;28;20071;-42
2022/10/16 02:38:12;;;;;;;6.72;3.20;;;;;;;12.93;100.00;100805.50;5049942;28;20037;-42
2022/10/16 02:40:38;;;;;;;7.95;3.15;;;;;;;12.92;100.00;100802.97;5050784;28;20480;-43
2022/10/16 02:43:04;;;;;;;12.57;3.25;;;;;;;12.89;100.00;100809.59;5049902;28;20033;-42
2022/10/16 02:45:29;;;;;;;11.93;3.10;;;;;;;12.89;100.00;100808.78;5051393;28;20032;-43
2022/10/16 02:47:55;;;;;;;11.30;2.55;;;;;;;12.87;100.00;100810.84;5050641;28;20455;-43
2022/10/16 02:50:20;;;;;;;13.10;2.90;;;;;;;12.87;100.00;100822.47;5050732;28;20439;-43
2022/10/16 02:52:46;;;;;;;14.60;2.90;;;;;;;12.86;100.00;100820.81;5050858;28;20434;-43
2022/10/16 02:55:11;;;;;;;9.02;2.65;;;;;;;12.83;100.00;100810.41;5051145;28;20551;-41
2022/10/16 02:57:37;;;;;;;11.27;2.55;;;;;;;12.83;100.00;100813.13;5050569;28;20033;-43
2022/10/16 03:00:04;;;;;;;13.57;2.78;;;;;;;12.84;100.00;100820.16;5051064;28;20033;-43
2022/10/16 03:02:30;;;;;;;9.90;2.17;;;;;;;12.82;100.00;100808.75;5050376;28;20029;-43
2022/10/16 03:04:55;;;;;;;8.85;2.55;;;;;;;12.82;100.00;100799.78;5051114;28;20025;-42
2022/10/16 03:07:20;;;;;;;10.93;2.33;;;;;;;12.80;100.00;100800.00;5050156;28;20468;-42
2022/10/16 03:09:46;;;;;;;6.78;2.00;;;;;;;12.82;100.00;100813.28;5050664;28;20104;-42
2022/10/16 03:12:11;;;;;;;9.43;2.20;;;;;;;12.82;100.00;100803.34;5050394;28;20055;-43
2022/10/16 03:14:37;;;;;;;7.22;1.77;;;;;;;12.84;100.00;100814.78;5050726;28;20112;-42
2022/10/16 03:17:02;;;;;;;9.18;1.95;;;;;;;12.85;100.00;100811.06;5050372;28;20111;-41
2022/10/16 03:19:28;;;;;;;11.25;2.40;;;;;;;12.87;100.00;100822.47;5047809;28;20033;-41
2022/10/16 03:21:53;;;;;;;8.73;2.15;;;;;;;12.86;100.00;100823.50;5047598;28;20072;-41
2022/10/16 03:24:18;;;;;;;8.52;2.53;;;;;;;12.86;100.00;100828.91;5048110;28;20036;-41
2022/10/16 03:26:44;;;;;;;9.57;2.20;;;;;;;12.88;100.00;100834.13;5047740;28;20040;-42
2022/10/16 03:29:09;;;;;;;8.65;1.95;;;;;;;12.88;100.00;100837.66;5047712;28;20021;-42
2022/10/16 03:31:34;;;;;;;8.85;2.00;;;;;;;12.88;100.00;100836.84;5047417;28;20029;-43
2022/10/16 03:34:00;;;;;;;10.38;1.95;;;;;;;12.90;100.00;100838.31;5047797;28;20482;-42
2022/10/16 03:36:25;;;;;;;8.50;1.90;;;;;;;12.89;100.00;100836.63;5047585;28;20029;-41
2022/10/16 03:38:50;;;;;;;6.32;1.70;;;;;;;12.89;100.00;100836.63;5047373;28;20036;-43
2022/10/16 03:41:16;;;;;;;12.93;2.55;;;;;;;12.92;100.00;100840.78;5047514;28;20033;-43
2022/10/16 03:43:41;;;;;;;10.60;1.90;;;;;;;12.95;100.00;100846.66;5047727;28;20152;-42
2022/10/16 03:46:07;;;;;;;9.60;2.17;;;;;;;12.95;100.00;100843.97;5047804;28;20421;-40
2022/10/16 03:48:33;;;;;;;7.50;1.67;;;;;;;12.95;100.00;100852.06;5046487;28;20472;-42
2022/10/16 03:50:58;;;;;;;9.63;1.90;;;;;;;12.93;100.00;100848.72;5046152;28;20480;-43
2022/10/16 03:53:24;;;;;;;11.48;2.05;;;;;;;12.91;100.00;100844.53;5046095;28;20026;-41
2022/10/16 03:55:49;;;;;;;6.75;1.58;;;;;;;12.91;100.00;100856.16;5047167;28;20116;-43
2022/10/16 03:58:15;;;;;;;10.52;2.10;;;;;;;12.89;100.00;100863.63;5047032;28;20033;-47
2022/10/16 04:00:44;;;;;;;7.75;1.77;;;;;;;12.92;100.00;100855.13;5046910;28;20013;-43
2022/10/16 04:03:10;;;;;;;6.43;1.58;;;;;;;12.93;100.00;100858.69;5047387;28;20478;-43
2022/10/16 04:05:35;;;;;;;10.52;1.90;;;;;;;12.93;100.00;100867.63;5046543;28;20115;-41
2022/10/16 04:08:01;;;;;;;7.45;1.80;;;;;;;12.96;100.00;100867.22;5045487;28;20053;-42
2022/10/16 04:10:26;;;;;;;8.85;1.80;;;;;;;12.98;100.00;100867.03;5046997;28;20033;-43
2022/10/16 04:12:54;;;;;;;10.32;2.10;;;;;;;12.96;100.00;100867.22;5047340;28;20033;-43
2022/10/16 04:15:19;;;;;;;7.68;1.80;;;;;;;12.95;100.00;100873.66;5047319;28;20044;-42
2022/10/16 04:17:45;;;;;;;10.80;1.83;;;;;;;12.94;100.00;100873.84;5046634;28;20061;-42
2022/10/16 04:20:10;;;;;;;10.52;2.05;;;;;;;12.94;100.00;100874.69;5046395;28;20029;-41
2022/10/16 04:22:35;;;;;;;7.95;1.95;;;;;;;12.92;100.00;100884.84;5047305;28;20033;-41
2022/10/16 04:25:01;;;;;;;6.53;2.03;;;;;;;12.87;100.00;100891.88;5047210;28;20024;-42
2022/10/16 04:27:26;;;;;;;7.93;2.00;;;;;;;12.87;100.00;100891.88;5046763;28;20037;-42
2022/10/16 04:29:51;;;;;;;11.43;2.05;;;;;;;12.85;100.00;100894.78;5046915;28;20063;-41
2022/10/16 04:32:17;;;;;;;7.82;1.90;;;;;;;12.85;100.00;100894.78;5046464;28;20068;-42
2022/10/16 04:34:43;;;;;;;6.28;2.28;;;;;;;12.83;100.00;100907.66;5046780;28;20306;-42
2022/10/16 04:37:08;;;;;;;7.15;2.10;;;;;;;12.78;100.00;100903.88;5046569;28;20037;-43
2022/10/16 04:39:33;;;;;;;5.97;2.00;;;;;;;12.79;100.00;100911.75;5046333;28;20029;-45
2022/10/16 04:41:59;;;;;;;9.23;2.10;;;;;;;12.77;100.00;100911.13;5047134;28;20082;-41
2022/10/16 04:44:24;;;;;;;19.63;2.75;;;;;;;12.79;100.00;100927.94;5046872;28;20112;-41
2022/10/16 04:46:52;;;;;;;11.13;2.92;;;;;;;12.77;100.00;100934.56;5046136;28;20126;-41
2022/10/16 04:49:17;;;;;;;8.15;2.25;;;;;;;12.81;100.00;100927.78;5046596;28;20029;-42
2022/10/16 04:51:43;;;;;;;8.18;2.97;;;;;;;12.77;100.00;100930.03;5046169;28;20037;-43
2022/10/16 04:54:09;;;;;;;6.82;2.63;;;;;;;12.74;100.00;100930.41;5043823;28;20551;-41
2022/10/16 04:56:42;;;;;;;19.27;2.85;;;;;;;12.66;100.00;100927.84;5046587;28;20040;-43
2022/10/16 04:59:08;;;;;;;7.38;3.30;;;;;;;12.52;100.00;100941.22;5047652;28;20036;-49
2022/10/16 05:01:33;;;;;;;16.23;2.92;;;;;;;12.42;100.00;100942.56;5042182;28;20501;-50
2022/10/16 05:03:59;;;;;;;14.75;3.28;;;;;;;12.34;100.00;100954.31;5046817;28;20025;-46
2022/10/16 05:06:24;;;;;;;11.10;3.25;;;;;;;12.27;100.00;100956.94;5046857;28;20465;-42
2022/10/16 05:08:49;;;;;;;6.85;2.65;;;;;;;12.24;100.00;100986.16;5046871;28;20492;-42
2022/10/16 05:11:15;;;;;;;9.45;2.88;;;;;;;12.22;100.00;100974.75;5047264;28;20100;-47
2022/10/16 05:13:40;;;;;;;17.50;3.47;;;;;;;12.18;100.00;100990.44;5050221;28;20071;-40
2022/10/16 05:16:06;;;;;;;19.38;4.00;;;;;;;12.13;100.00;100987.47;5049998;28;20037;-38
2022/10/16 05:18:31;;;;;;;16.90;4.05;;;;;;;12.10;100.00;100989.72;5045990;28;20032;-41
2022/10/16 05:20:57;;;;;;;15.98;4.30;;;;;;;12.05;100.00;100992.97;5030427;28;20080;-43
2022/10/16 05:23:22;;;;;;;17.83;4.38;;;;;;;12.02;100.00;101004.97;5030767;28;20105;-44
2022/10/16 05:25:58;;;;;;;22.90;4.93;;;;;;;11.99;100.00;101005.34;5030447;28;20166;-43
2022/10/16 05:28:24;;;;;;;26.98;5.38;;;;;;;11.97;100.00;101020.88;5050629;28;20033;-43
2022/10/16 05:30:50;;;;;;;13.07;4.90;;;;;;;11.95;100.00;101012.13;5049766;28;20060;-41
2022/10/16 05:33:15;;;;;;;19.13;5.32;;;;;;;11.92;100.00;101017.91;5050415;28;20082;-40
2022/10/16 05:35:40;;;;;;;22.55;5.18;;;;;;;11.90;100.00;101019.13;5050043;28;20017;-43
2022/10/16 05:38:05;;;;;;;19.02;5.13;;;;;;;11.90;100.00;101030.78;5049845;28;20069;-43
2022/10/16 05:40:31;;;;;;;22.83;5.65;;;;;;;11.89;100.00;101022.84;5049996;28;20021;-43
2022/10/16 05:42:56;;;;;;;27.73;5.93;;;;;;;11.89;100.00;101031.78;5050108;28;20159;-42
2022/10/16 05:45:22;;;;;;;19.40;5.82;;;;;;;11.88;100.00;101024.72;5049903;28;20021;-43
2022/10/16 05:47:47;;;;;;;25.98;6.45;;;;;;;11.89;100.00;101030.94;5049765;28;20036;-44
2022/10/16 05:50:12;;;;;;;16.25;5.78;;;;;;;11.89;100.00;101029.06;5049963;28;20025;-44
2022/10/16 05:52:38;;;;;;;14.65;5.47;;;;;;;11.88;100.00;101037.38;5050355;28;20023;-43
2022/10/16 05:55:03;;;;;;;16.85;5.47;;;;;;;11.86;100.00;101034.84;5050089;28;20029;-43
2022/10/16 05:57:29;;;;;;;24.08;5.93;;;;;;;11.85;100.00;101044.78;5048578;28;20033;-42
2022/10/16 05:59:55;;;;;;;16.75;5.55;;;;;;;11.85;100.00;101043.94;5042350;28;20515;-40
2022/10/16 06:02:20;;;;;;;19.15;5.05;;;;;;;11.83;100.00;101036.03;5048954;28;20063;-41
2022/10/16 06:04:46;;;;;;;19.58;4.95;;;;;;;11.85;100.00;101043.94;5049431;28;20033;-42
2022/10/16 06:07:11;;;;;;;19.30;4.90;;;;;;;11.85;100.00;101033.16;5047867;28;20080;-40
2022/10/16 06:09:37;;;;;;;22.98;5.25;;;;;;;11.86;100.00;101051.03;5048428;28;20033;-41
2022/10/16 06:12:02;;;;;;;18.00;5.28;;;;;;;11.85;100.00;101039.38;5048317;28;20025;-40
2022/10/16 06:14:27;;;;;;;15.00;4.70;;;;;;;11.86;100.00;101042.94;5040630;28;20064;-39
2022/10/16 06:16:53;;;;;;;20.70;4.68;;;;;;;11.85;100.00;101044.78;5047771;28;20336;-39
2022/10/16 06:19:18;;;;;;;20.70;4.18;;;;;;;11.85;100.00;101044.78;5045498;28;20067;-39
2022/10/16 06:21:44;;;;;;;17.10;3.42;;;;;;;11.85;100.00;101046.63;5040816;28;20025;-40
2022/10/16 06:24:09;;;;;;;18.52;3.33;;;;;;;11.85;100.00;101049.34;5037111;28;20444;-41
2022/10/16 06:26:35;;;;;;;28.27;3.95;;;;;;;11.88;100.00;101065.19;5032105;28;20033;-42
2022/10/16 06:29:00;;;;;;;19.42;3.83;;;;;;;11.92;100.00;101057.53;5029623;28;20104;-40
2022/10/16 06:31:28;;;;;;;18.98;3.38;;;;;;;11.91;100.00;101064.78;5044954;28;20082;-39
2022/10/16 06:33:55;;;;;;;21.20;3.03;;;;;;;11.92;100.00;101071.84;5048993;28;20072;-41
2022/10/16 06:36:20;;;;;;;11.25;3.28;;;;;;;11.95;100.00;101060.69;5049056;28;20116;-42
2022/10/16 06:38:46;;;;;;;17.02;3.17;;;;;;;11.97;100.00;101068.59;5037554;28;20112;-41
2022/10/16 06:41:13;;;;;;;13.15;3.20;;;;;;;12.00;100.00;101068.22;5046274;28;20047;-41
2022/10/16 06:43:38;;;;;;;23.13;3.42;;;;;;;12.04;100.00;101080.34;5039079;28;20021;-42
2022/10/16 06:46:05;;;;;;;19.23;3.25;;;;;;;12.05;100.00;101082.00;5044435;28;20059;-39
2022/10/16 06:48:30;;;;;;;21.77;2.88;;;;;;;12.08;100.00;101087.88;5047578;28;20029;-41
2022/10/16 06:51:00;;;;;;;9.10;2.65;;;;;;;12.10;100.00;101090.38;5045799;28;20464;-40
2022/10/16 06:53:27;;;;;;;28.67;2.97;;;;;;;12.12;100.00;101098.28;5033369;28;20480;-41
2022/10/16 06:55:52;;;;;;;23.15;4.03;;;;;;;12.11;100.00;101093.91;5028574;28;20048;-41
2022/10/16 06:58:18;;;;;;;17.23;3.83;;;;;;;12.13;100.00;101105.34;5036153;28;20456;-41
2022/10/16 07:00:43;;;;;;;18.83;3.10;;;;;;;12.10;100.00;101103.03;5035731;28;20064;-41
2022/10/16 07:03:08;;;;;;;17.17;3.75;;;;;;;12.13;100.00;101110.75;5028495;28;20045;-40
2022/10/16 07:05:41;;;;;;;21.45;3.45;;;;;;;12.14;100.00;101117.81;5041884;28;20033;-40
2022/10/16 07:08:07;;;;;;;14.10;3.70;;;;;;;12.16;100.00;101123.88;5028164;28;20057;-39
2022/10/16 07:10:33;;;;;;;26.00;4.13;;;;;;;12.20;100.00;101127.88;5047163;28;20035;-40
2022/10/16 07:12:58;;;;;;;17.73;3.55;;;;;;;12.26;100.00;101135.22;5046858;28;20043;-40
2022/10/16 07:15:25;;;;;;;21.88;3.40;;;;;;;12.33;100.00;101127.25;5057260;28;20029;-40
2022/10/16 07:17:50;;;;;;;13.43;3.25;;;;;;;12.46;100.00;101138.22;5043965;28;20040;-40
2022/10/16 07:20:15;;;;;;;13.95;3.40;;;;;;;12.50;100.00;101134.94;5046484;28;20029;-39
2022/10/16 07:22:40;;;;;;;26.77;3.80;;;;;;;12.66;100.00;101149.25;5046463;28;20052;-41
2022/10/16 07:25:06;;;;;;;13.18;3.30;;;;;;;12.76;100.00;101157.91;5035442;28;20419;-41
2022/10/16 07:27:32;;;;;;;15.55;3.88;;;;;;;12.82;100.00;101161.72;5042939;28;20472;-42
2022/10/16 07:29:57;;;;;;;18.38;4.22;;;;;;;12.78;100.00;101163.13;5046309;28;20025;-39
2022/10/16 07:32:23;;;;;;;22.65;3.63;;;;;;;12.87;100.00;101162.81;5046915;28;20028;-40
2022/10/16 07:34:48;;;;;;;15.00;3.65;;;;;;;13.53;100.00;101176.28;5031735;28;20471;-39
2022/10/16 07:37:14;;;;;;;19.85;3.60;;;;;;;13.92;100.00;101179.50;5043015;28;20112;-41
2022/10/16 07:39:39;;;;;;;18.17;3.03;;;;;;;14.23;100.00;101162.88;5038034;28;20115;-41
2022/10/16 07:42:04;;;;;;;19.25;3.50;;;;;;;14.65;100.00;101170.03;5041283;28;20025;-42
2022/10/16 07:44:30;;;;;;;16.48;2.80;;;;;;;14.92;100.00;101172.88;5032057;28;20119;-42
2022/10/16 07:46:55;;;;;;;21.30;2.85;;;;;;;15.10;100.00;101167.72;5041495;28;20044;-40
2022/10/16 07:49:20;;;;;;;21.52;2.97;;;;;;;15.49;99.31;101168.84;5046608;28;20108;-40
2022/10/16 07:51:46;;;;;;;12.20;2.63;;;;;;;15.40;96.48;101172.78;5047851;28;20060;-41
2022/10/16 07:54:11;;;;;;;10.65;2.10;;;;;;;15.39;97.47;101187.41;5048062;28;20025;-40
2022/10/16 07:56:37;;;;;;;20.83;2.58;;;;;;;15.26;97.41;101193.63;5048440;28;20025;-41
2022/10/16 07:59:02;;;;;;;14.35;2.08;;;;;;;15.83;97.16;101194.19;5047989;28;20124;-40
2022/10/16 08:01:27;;;;;;;14.85;2.10;;;;;;;15.93;93.82;101191.88;5048284;28;20059;-41
2022/10/16 08:03:53;;;;;;;20.73;3.22;;;;;;;16.77;92.48;101198.47;5038946;28;20036;-41
2022/10/16 08:06:20;;;;;;;24.67;3.28;;;;;;;16.79;89.29;101206.41;5049612;28;20028;-41
2022/10/16 08:08:45;;;;;;;16.80;2.27;;;;;;;16.91;87.43;101209.28;5048604;28;20204;-41
2022/10/16 08:11:10;;;;;;;21.92;2.95;;;;;;;17.52;84.91;101212.31;5049392;28;20037;-41
2022/10/16 08:13:36;;;;;;;15.30;2.35;;;;;;;17.77;83.63;101217.81;5049091;28;20021;-41
2022/10/16 08:16:01;;;;;;;21.75;2.72;;;;;;;16.94;83.88;101231.44;5049108;28;20035;-41
2022/10/16 08:18:27;;;;;;;12.18;2.15;;;;;;;17.07;84.99;101222.41;5049561;28;20037;-41
2022/10/16 08:20:57;;;;;;;15.45;2.55;;;;;;;16.84;85.02;101220.19;5049799;28;20040;-41
2022/10/16 08:23:23;;;;;;;19.50;2.63;;;;;;;17.10;85.65;101227.41;5049597;28;20413;-41
2022/10/16 08:25:48;;;;;;;13.93;2.28;;;;;;;17.07;84.56;101223.22;5049576;28;20056;-40
2022/10/16 08:28:13;;;;;;;16.83;2.63;;;;;;;17.12;84.24;101230.75;5049928;28;20021;-42
2022/10/16 08:30:39;;;;;;;11.73;2.22;;;;;;;17.34;83.91;101237.53;5049606;28;20032;-41
2022/10/16 08:33:06;;;;;;;16.90;2.97;;;;;;;17.70;82.29;101241.53;5048014;28;20514;-41
2022/10/16 08:35:31;;;;;;;15.23;2.60;;;;;;;17.20;80.86;101241.38;5048670;28;20074;-42
2022/10/16 08:37:56;;;;;;;16.23;2.30;;;;;;;17.88;80.33;101250.88;5049919;28;20040;-41
2022/10/16 08:40:27;;;;;;;12.80;2.35;;;;;;;17.22;82.17;101266.50;5045031;28;20308;-41
2022/10/16 08:43:15;;;;;;;17.55;2.63;;;;;;;16.72;84.43;101255.31;5049767;28;20029;-43
2022/10/16 08:46:18;;;;;;;16.95;2.45;;;;;;;16.79;85.14;101269.75;5043079;28;20064;-42
2022/10/16 08:48:47;;;;;;;19.00;3.35;;;;;;;16.38;86.32;101267.28;5056573;28;20355;-41
2022/10/16 08:51:27;;;;;;;14.32;2.80;;;;;;;16.30;88.08;101276.47;5062493;28;20071;-42
2022/10/16 08:53:59;;;;;;;18.90;2.85;;;;;;;16.41;87.51;101275.84;5048905;28;20559;-41
2022/10/16 08:56:26;;;;;;;21.08;2.72;;;;;;;16.76;87.15;101285.63;5049142;28;20036;-40
2022/10/16 08:58:52;;;;;;;12.80;2.47;;;;;;;16.22;87.90;101292.97;5050435;28;20065;-42
2022/10/16 09:01:19;;;;;;;21.02;2.45;;;;;;;16.26;89.04;101287.97;5050898;28;20065;-42
2022/10/16 09:04:22;;;;;;;14.43;2.50;;;;;;;15.69;90.03;101295.59;5050939;28;20025;-41
2022/10/16 09:06:52;;;;;;;22.45;2.80;;;;;;;15.32;93.28;101303.16;5051790;28;20029;-42
2022/10/16 09:09:43;;;;;;;18.40;2.75;;;;;;;15.47;95.51;101311.97;5073710;28;20491;-42
2022/10/16 09:12:35;;;;;;;18.05;3.03;;;;;;;15.65;95.49;101314.13;5030437;28;20091;-41
2022/10/16 09:15:18;;;;;;;15.80;2.35;;;;;;;15.83;94.57;101310.88;5034208;28;20453;-43
2022/10/16 09:18:10;;;;;;;22.45;3.28;;;;;;;16.09;92.52;101306.53;5052717;28;20037;-44
2022/10/16 09:20:51;;;;;;;21.15;2.63;;;;;;;16.21;92.20;101307.59;5043139;28;20420;-42
2022/10/16 09:23:25;;;;;;;20.33;2.70;;;;;;;16.48;90.15;101307.59;5040962;28;20029;-43
2022/10/16 09:25:51;;;;;;;21.88;2.65;;;;;;;16.96;87.87;101310.91;5049314;28;20031;-42
2022/10/16 09:28:17;;;;;;;27.45;2.90;;;;;;;17.05;84.17;101298.75;5052805;28;20375;-42
2022/10/16 09:30:43;;;;;;;24.30;3.20;;;;;;;17.19;83.19;101304.97;5051887;28;20368;-43
2022/10/16 09:33:10;;;;;;;26.55;3.13;;;;;;;16.88;82.42;101303.81;5051934;28;20036;-42
2022/10/16 09:35:47;;;;;;;20.67;2.80;;;;;;;17.07;82.30;101302.09;5050241;28;20036;-42
2022/10/16 09:38:42;;;;;;;21.77;3.08;;;;;;;17.08;82.63;101303.75;5045334;28;20470;-44
2022/10/16 09:41:21;;;;;;;19.60;2.53;;;;;;;17.10;82.61;101311.72;5051808;28;20037;-43
2022/10/16 09:43:51;;;;;;;35.60;2.83;;;;;;;16.64;82.68;101310.72;5051342;28;20021;-42
2022/10/16 09:46:28;;;;;;;17.20;2.25;;;;;;;16.52;83.69;101315.13;5052294;28;20028;-42
2022/10/16 09:48:56;;;;;;;23.80;3.53;;;;;;;16.45;84.18;101320.53;5052327;28;20056;-42
2022/10/16 09:51:25;;;;;;;30.15;3.30;;;;;;;16.43;83.53;101316.38;5051846;28;20036;-42
2022/10/16 09:53:55;;;;;;;30.25;3.17;;;;;;;16.44;84.92;101313.44;5051132;28;20057;-43
2022/10/16 09:56:29;;;;;;;29.70;2.95;;;;;;;16.53;83.40;101314.06;5051864;28;20025;-41
2022/10/16 09:58:59;;;;;;;25.33;2.65;;;;;;;16.59;82.17;101321.41;5051922;28;20463;-42
2022/10/16 10:01:50;;;;;;;23.80;2.47;;;;;;;16.51;81.26;101323.47;5052340;28;20052;-41
2022/10/16 10:04:16;;;;;;;32.63;3.42;;;;;;;16.38;80.75;101327.88;5050479;28;20115;-42
2022/10/16 10:06:47;;;;;;;36.92;3.60;;;;;;;16.40;79.81;101314.94;5049563;28;20029;-43
2022/10/16 10:09:32;;;;;;;26.30;4.10;;;;;;;16.30;79.63;101311.78;5049258;28;20033;-41
2022/10/16 10:11:58;;;;;;;34.35;3.75;;;;;;;16.48;79.93;101319.28;5049097;28;20033;-41
2022/10/16 10:14:36;;;;;;;24.02;3.10;;;;;;;16.60;77.88;101324.94;5050340;28;20035;-43
2022/10/16 10:17:25;;;;;;;19.83;2.20;;;;;;;16.53;73.34;101332.25;5050489;28;20120;-43
2022/10/16 10:19:57;;;;;;;47.97;3.42;;;;;;;16.59;72.25;101343.13;5038314;28;20037;-43
2022/10/16 10:22:32;;;;;;;20.65;2.55;;;;;;;16.54;71.48;101347.53;5040863;28;20452;-42
2022/10/16 10:25:13;;;;;;;35.08;2.90;;;;;;;16.54;70.10;101339.38;5047994;28;20045;-42
2022/10/16 10:28:01;;;;;;;30.17;3.08;;;;;;;16.49;67.62;101341.88;5051448;28;20081;-42
2022/10/16 10:30:54;;;;;;;30.88;3.70;;;;;;;16.57;68.75;101345.22;5050517;28;20087;-41
2022/10/16 10:33:42;;;;;;;23.15;2.83;;;;;;;16.50;68.46;101365.28;5049643;28;20040;-42
2022/10/16 10:36:23;;;;;;;22.98;2.90;;;;;;;16.65;68.20;101357.75;5037639;28;20049;-43
2022/10/16 10:38:51;;;;;;;25.52;2.47;;;;;;;16.67;67.77;101361.13;5051522;28;20033;-42
2022/10/16 10:41:50;;;;;;;22.58;3.03;;;;;;;16.87;70.37;101364.66;5048271;28;20025;-42
2022/10/16 10:44:25;;;;;;;33.70;3.58;;;;;;;16.86;70.07;101368.44;5049669;28;20028;-42
2022/10/16 10:46:53;;;;;;;29.17;2.63;;;;;;;16.88;68.14;101363.63;5046624;28;20044;-41
2022/10/16 10:49:34;;;;;;;22.73;2.58;;;;;;;16.89;68.16;101373.44;5046428;28;20048;-41
2022/10/16 10:52:05;;;;;;;20.27;2.90;;;;;;;17.10;68.57;101371.53;5035295;28;20038;-42
2022/10/16 10:54:48;;;;;;;20.80;2.85;;;;;;;17.20;70.20;101371.13;5049984;28;20437;-41
2022/10/16 10:57:25;;;;;;;24.52;2.92;;;;;;;17.22;68.13;101372.56;5051343;28;20025;-42
2022/10/16 11:00:18;;;;;;;22.47;3.43;;;;;;;17.26;66.63;101376.53;5049640;28;20120;-43
2022/10/16 11:02:55;;;;;;;31.30;3.05;;;;;;;17.10;66.68;101377.81;5051091;28;20036;-41
2022/10/16 11:05:45;;;;;;;21.27;2.47;;;;;;;17.20;66.43;101382.81;5031716;28;20071;-42
2022/10/16 11:08:18;;;;;;;19.40;2.30;;;;;;;17.10;65.93;101390.59;5046159;28;20822;-42
2022/10/16 11:10:57;;;;;;;21.98;2.35;;;;;;;17.22;66.78;101391.63;5045597;28;20154;-42
2022/10/16 11:13:40;;;;;;;22.85;2.70;;;;;;;17.04;66.09;101391.44;5049834;28;20051;-42
2022/10/16 11:16:49;;;;;;;24.75;3.15;;;;;;;17.11;66.67;101395.81;5050291;28;20032;-42
2022/10/16 11:19:39;;;;;;;35.72;2.60;;;;;;;17.06;64.53;101392.91;5029590;28;20068;-42
2022/10/16 11:22:14;;;;;;;21.08;1.88;;;;;;;17.20;65.08;101396.44;5048343;28;20033;-44
2022/10/16 11:24:44;;;;;;;21.88;2.67;;;;;;;17.43;66.19;101400.53;5048039;28;20017;-43
2022/10/16 11:27:14;;;;;;;29.58;3.13;;;;;;;17.59;65.13;101405.53;5049817;28;20032;-44
2022/10/16 11:29:51;;;;;;;21.02;2.85;;;;;;;17.48;61.46;101403.47;5045923;28;20051;-42